createdAt,value
2022-12-18T00:01:44.440Z,101183.53
2022-12-18T00:04:21.144Z,101186.09
2022-12-18T00:06:47.615Z,101186.06
2022-12-18T00:09:14.994Z,101184.31
2022-12-18T00:11:41.434Z,101172.34
2022-12-18T00:14:08.160Z,101173.31
2022-12-18T00:16:36.359Z,101169.97
2022-12-18T00:19:03.849Z,101161.50
2022-12-18T00:21:31.457Z,101156.34
2022-12-18T00:23:59.052Z,101160.72
2022-12-18T00:26:27.842Z,101178.72
2022-12-18T00:29:07.003Z,101184.63
2022-12-18T00:31:34.030Z,101193.19
2022-12-18T00:34:01.896Z,101194.03
2022-12-18T00:36:31.702Z,101192.41
2022-12-18T00:38:59.349Z,101195.75
2022-12-18T00:41:44.525Z,101193.28
2022-12-18T00:44:13.470Z,101179.56
2022-12-18T00:46:40.219Z,101169.78
2022-12-18T00:49:07.819Z,101166.13
2022-12-18T00:51:35.259Z,101167.66
2022-12-18T00:54:02.260Z,101165.97
2022-12-18T00:56:28.743Z,101165.09
2022-12-18T00:58:55.231Z,101160.75
2022-12-18T01:01:22.206Z,101164.13
2022-12-18T01:03:49.003Z,101173.47
2022-12-18T01:06:17.200Z,101177.78
2022-12-18T01:08:44.841Z,101176.88
2022-12-18T01:11:13.686Z,101183.72
2022-12-18T01:13:42.023Z,101181.06
2022-12-18T01:16:09.965Z,101184.41
2022-12-18T01:18:36.718Z,101179.28
2022-12-18T01:21:07.740Z,101161.16
2022-12-18T01:23:37.344Z,101168.91
2022-12-18T01:26:08.449Z,101168.09
2022-12-18T01:28:36.122Z,101170.81
2022-12-18T01:31:24.421Z,101170.00
2022-12-18T01:33:52.013Z,101171.66
2022-12-18T01:36:24.973Z,101177.66
2022-12-18T01:38:52.443Z,101182.78
2022-12-18T01:41:22.745Z,101190.34
2022-12-18T01:43:53.464Z,101193.69
2022-12-18T01:46:22.543Z,101197.13
2022-12-18T01:48:54.810Z,101205.75
2022-12-18T01:51:21.433Z,101213.44
2022-12-18T01:53:48.762Z,101209.16
2022-12-18T01:56:17.330Z,101205.75
2022-12-18T01:58:49.276Z,101206.56
2022-12-18T02:01:16.101Z,101197.97
2022-12-18T02:03:44.170Z,101193.53
2022-12-18T02:06:24.969Z,101192.63
2022-12-18T02:09:18.704Z,101184.94
2022-12-18T02:11:54.164Z,101177.25
2022-12-18T02:14:38.490Z,101196.88
2022-12-18T02:17:09.549Z,101196.88
2022-12-18T02:20:16.213Z,101196.78
2022-12-18T02:23:15.868Z,101201.91
2022-12-18T02:26:08.868Z,101191.69
2022-12-18T02:28:56.747Z,101187.53
2022-12-18T02:31:27.503Z,101174.72
2022-12-18T02:33:57.600Z,101159.34
2022-12-18T02:36:24.518Z,101150.72
2022-12-18T02:38:54.642Z,101158.41
2022-12-18T02:41:25.305Z,101158.34
2022-12-18T02:44:02.432Z,101155.03
2022-12-18T02:46:37.916Z,101144.75
2022-12-18T02:49:25.507Z,101133.69
2022-12-18T02:51:55.506Z,101128.56
2022-12-18T02:54:37.515Z,101131.91
2022-12-18T02:57:14.372Z,101123.19
2022-12-18T02:59:47.433Z,101143.66
2022-12-18T03:02:23.746Z,101153.91
2022-12-18T03:05:13.345Z,101165.84
2022-12-18T03:08:03.949Z,101167.56
2022-12-18T03:10:50.601Z,101167.47
2022-12-18T03:13:34.650Z,101167.34
2022-12-18T03:16:03.562Z,101175.81
2022-12-18T03:18:58.236Z,101187.72
2022-12-18T03:21:31.037Z,101178.41
2022-12-18T03:23:58.862Z,101182.09
2022-12-18T03:26:27.662Z,101188.13
2022-12-18T03:29:01.081Z,101192.47
2022-12-18T03:31:30.404Z,101191.56
2022-12-18T03:34:03.178Z,101193.25
2022-12-18T03:36:38.767Z,101183.03
2022-12-18T03:39:05.772Z,101168.38
2022-12-18T03:41:46.261Z,101151.94
2022-12-18T03:44:28.048Z,101145.00
2022-12-18T03:47:32.632Z,101140.66
2022-12-18T03:50:16.689Z,101147.97
2022-12-18T03:52:50.569Z,101140.25
2022-12-18T03:55:18.949Z,101129.16
2022-12-18T03:57:49.058Z,101139.38
2022-12-18T04:00:17.702Z,101147.88
2022-12-18T04:02:57.662Z,101157.09
2022-12-18T04:05:34.250Z,101147.84
2022-12-18T04:08:02.106Z,101159.88
2022-12-18T04:10:29.069Z,101151.13
2022-12-18T04:12:59.149Z,101153.69
2022-12-18T04:15:27.026Z,101150.19
2022-12-18T04:17:53.533Z,101158.66
2022-12-18T04:20:23.323Z,101159.47
2022-12-18T04:22:50.270Z,101155.09
2022-12-18T04:25:19.287Z,101157.66
2022-12-18T04:28:05.419Z,101156.84
2022-12-18T04:30:33.307Z,101154.28
2022-12-18T04:32:59.887Z,101151.72
2022-12-18T04:35:27.295Z,101139.50
2022-12-18T04:37:53.782Z,101148.88
2022-12-18T04:40:20.320Z,101137.69
2022-12-18T04:42:48.466Z,101136.09
2022-12-18T04:45:14.900Z,101137.88
2022-12-18T04:47:41.391Z,101137.06
2022-12-18T04:50:08.265Z,101125.06
2022-12-18T04:52:34.696Z,101131.09
2022-12-18T04:55:01.163Z,101140.50
2022-12-18T04:57:27.683Z,101145.66
2022-12-18T04:59:54.153Z,101154.13
2022-12-18T05:02:20.711Z,101159.16
2022-12-18T05:04:47.234Z,101155.69
2022-12-18T05:07:13.719Z,101163.38
2022-12-18T05:09:40.172Z,101163.34
2022-12-18T05:12:06.693Z,101170.16
2022-12-18T05:14:33.149Z,101168.34
2022-12-18T05:17:01.236Z,101168.97
2022-12-18T05:19:27.951Z,101173.09
2022-12-18T05:21:54.519Z,101177.31
2022-12-18T05:24:21.008Z,101178.09
2022-12-18T05:26:47.495Z,101184.13
2022-12-18T05:29:14.085Z,101187.63
2022-12-18T05:31:41.118Z,101195.34
2022-12-18T05:34:09.408Z,101186.00
2022-12-18T05:36:37.208Z,101179.25
2022-12-18T05:39:04.032Z,101174.22
2022-12-18T05:41:30.965Z,101176.88
2022-12-18T05:43:57.540Z,101167.47
2022-12-18T05:46:25.087Z,101175.25
2022-12-18T05:48:51.761Z,101166.78
2022-12-18T05:51:20.615Z,101150.50
2022-12-18T05:53:47.702Z,101147.88
2022-12-18T05:56:16.190Z,101148.88
2022-12-18T05:58:42.993Z,101148.09
2022-12-18T06:01:15.129Z,101145.63
2022-12-18T06:03:42.150Z,101149.13
2022-12-18T06:06:21.158Z,101147.31
2022-12-18T06:08:47.894Z,101159.28
2022-12-18T06:11:17.912Z,101165.94
2022-12-18T06:13:44.352Z,101176.09
2022-12-18T06:16:11.462Z,101180.03
2022-12-18T06:18:38.046Z,101189.38
2022-12-18T06:21:04.518Z,101189.41
2022-12-18T06:23:31.115Z,101191.97
2022-12-18T06:25:57.551Z,101193.72
2022-12-18T06:28:24.197Z,101202.22
2022-12-18T06:30:51.198Z,101210.00
2022-12-18T06:33:17.877Z,101204.69
2022-12-18T06:35:44.337Z,101214.28
2022-12-18T06:38:10.771Z,101210.13
2022-12-18T06:40:39.065Z,101217.00
2022-12-18T06:43:06.158Z,101230.56
2022-12-18T06:45:32.657Z,101218.56
2022-12-18T06:47:59.112Z,101220.34
2022-12-18T06:50:25.728Z,101225.28
2022-12-18T06:52:52.257Z,101238.75
2022-12-18T06:55:18.891Z,101231.69
2022-12-18T06:57:45.402Z,101233.31
2022-12-18T07:00:12.126Z,101243.56
2022-12-18T07:02:38.677Z,101238.44
2022-12-18T07:05:10.484Z,101234.97
2022-12-18T07:07:37.590Z,101245.81
2022-12-18T07:10:04.669Z,101236.25
2022-12-18T07:12:31.126Z,101239.59
2022-12-18T07:14:57.583Z,101254.97
2022-12-18T07:17:25.151Z,101252.22
2022-12-18T07:19:51.632Z,101255.72
2022-12-18T07:22:18.168Z,101259.06
2022-12-18T07:24:44.641Z,101260.81
2022-12-18T07:27:11.025Z,101250.50
2022-12-18T07:29:37.514Z,101257.34
2022-12-18T07:32:04.922Z,101253.16
2022-12-18T07:34:31.427Z,101248.84
2022-12-18T07:36:58.950Z,101238.66
2022-12-18T07:39:25.463Z,101241.38
2022-12-18T07:42:11.974Z,101236.09
2022-12-18T07:44:40.179Z,101229.38
2022-12-18T07:47:11.776Z,101237.88
2022-12-18T07:49:38.819Z,101235.19
2022-12-18T07:52:05.321Z,101229.63
2022-12-18T07:54:31.941Z,101230.16
2022-12-18T07:56:58.339Z,101236.34
2022-12-18T07:59:24.816Z,101247.94
2022-12-18T08:01:51.273Z,101248.25
2022-12-18T08:04:18.045Z,101248.25
2022-12-18T08:06:47.752Z,101255.97
2022-12-18T08:09:15.164Z,101261.06
2022-12-18T08:11:41.582Z,101262.63
2022-12-18T08:14:08.009Z,101270.47
2022-12-18T08:16:34.504Z,101267.97
2022-12-18T08:19:00.957Z,101263.66
2022-12-18T08:21:29.335Z,101267.09
2022-12-18T08:23:58.100Z,101267.13
2022-12-18T08:26:26.111Z,101267.22
2022-12-18T08:28:54.173Z,101268.06
2022-12-18T08:31:21.018Z,101269.59
2022-12-18T08:33:50.865Z,101264.47
2022-12-18T08:36:17.413Z,101263.81
2022-12-18T08:38:43.950Z,101265.59
2022-12-18T08:41:12.563Z,101266.31
2022-12-18T08:43:57.632Z,101268.13
2022-12-18T08:46:26.231Z,101251.22
2022-12-18T08:48:53.124Z,101239.28
2022-12-18T08:51:20.546Z,101239.38
2022-12-18T08:53:47.356Z,101232.56
2022-12-18T08:56:15.200Z,101233.44
2022-12-18T08:58:42.395Z,101236.06
2022-12-18T09:01:10.793Z,101235.38
2022-12-18T09:03:37.610Z,101233.88
2022-12-18T09:06:04.715Z,101229.59
2022-12-18T09:08:31.147Z,101221.16
2022-12-18T09:11:00.108Z,101217.09
2022-12-18T09:13:26.558Z,101216.31
2022-12-18T09:15:55.038Z,101207.97
2022-12-18T09:18:22.558Z,101208.16
2022-12-18T09:20:49.007Z,101216.00
2022-12-18T09:23:15.588Z,101222.84
2022-12-18T09:25:42.172Z,101228.81
2022-12-18T09:28:19.093Z,101240.09
2022-12-18T09:30:50.358Z,101236.88
2022-12-18T09:33:17.677Z,101243.97
2022-12-18T09:35:45.105Z,101246.72
2022-12-18T09:38:18.739Z,101256.44
2022-12-18T09:40:59.713Z,101249.75
2022-12-18T09:43:34.035Z,101247.44
2022-12-18T09:46:03.621Z,101244.31
2022-12-18T09:48:33.657Z,101234.28
2022-12-18T09:51:05.227Z,101237.16
2022-12-18T09:53:34.188Z,101244.22
2022-12-18T09:56:01.477Z,101247.00
2022-12-18T09:58:32.109Z,101248.16
2022-12-18T10:00:58.616Z,101249.34
2022-12-18T10:03:25.273Z,101251.28
2022-12-18T10:05:58.173Z,101248.13
2022-12-18T10:08:30.221Z,101242.31
2022-12-18T10:11:23.098Z,101241.69
2022-12-18T10:14:22.030Z,101253.06
2022-12-18T10:16:51.896Z,101251.53
2022-12-18T10:19:50.032Z,101245.59
2022-12-18T10:22:37.796Z,101255.22
2022-12-18T10:25:28.736Z,101252.94
2022-12-18T10:28:01.362Z,101241.06
2022-12-18T10:30:28.396Z,101234.41
2022-12-18T10:32:55.186Z,101218.19
2022-12-18T10:35:27.611Z,101225.22
2022-12-18T10:38:02.036Z,101228.91
2022-12-18T10:40:28.576Z,101230.81
2022-12-18T10:43:13.286Z,101225.00
2022-12-18T10:45:40.624Z,101208.03
2022-12-18T10:48:22.250Z,101216.00
2022-12-18T10:53:38.014Z,101221.69
2022-12-18T10:56:06.081Z,101224.44
2022-12-18T10:58:37.649Z,101225.50
2022-12-18T11:01:07.310Z,101223.03
2022-12-18T11:03:42.496Z,101225.75
2022-12-18T11:06:11.955Z,101226.78
2022-12-18T11:08:39.301Z,101232.88
2022-12-18T11:11:17.335Z,101242.44
2022-12-18T11:13:54.094Z,101230.50
2022-12-18T11:16:21.078Z,101225.44
2022-12-18T11:18:47.576Z,101217.00
2022-12-18T11:21:15.521Z,101216.31
2022-12-18T11:23:50.466Z,101220.69
2022-12-18T11:26:17.825Z,101211.28
2022-12-18T11:28:51.737Z,101212.09
2022-12-18T11:31:25.599Z,101221.63
2022-12-18T11:34:28.084Z,101230.31
2022-12-18T11:36:49.156Z,101232.91
2022-12-18T11:39:36.264Z,101226.81
2022-12-18T11:42:12.297Z,101237.00
2022-12-18T11:44:43.592Z,101231.78
2022-12-18T11:47:15.170Z,101226.66
2022-12-18T11:49:42.315Z,101217.25
2022-12-18T11:52:22.303Z,101208.78
2022-12-18T11:54:53.752Z,101205.34
2022-12-18T11:57:39.314Z,101201.94
2022-12-18T12:00:11.723Z,101195.25
2022-12-18T12:02:58.111Z,101197.03
2022-12-18T12:05:52.064Z,101197.03
2022-12-18T12:08:36.139Z,101204.53
2022-12-18T12:11:12.125Z,101201.06
2022-12-18T12:13:44.895Z,101216.59
2022-12-18T12:16:21.417Z,101219.19
2022-12-18T12:18:57.720Z,101216.66
2022-12-18T12:21:53.506Z,101213.38
2022-12-18T12:24:49.118Z,101214.31
2022-12-18T12:27:33.503Z,101208.22
2022-12-18T12:30:21.633Z,101215.06
2022-12-18T12:33:02.540Z,101206.53
2022-12-18T12:35:35.521Z,101204.06
2022-12-18T12:38:05.901Z,101194.69
2022-12-18T12:40:55.319Z,101190.34
2022-12-18T12:43:46.041Z,101189.44
2022-12-18T12:46:18.063Z,101195.53
2022-12-18T12:48:51.085Z,101174.09
2022-12-18T12:51:21.306Z,101169.91
2022-12-18T12:53:48.992Z,101176.75
2022-12-18T12:56:20.131Z,101188.84
2022-12-18T12:58:58.385Z,101193.19
2022-12-18T13:01:40.894Z,101179.44
2022-12-18T13:04:16.419Z,101185.28
2022-12-18T13:07:01.072Z,101184.41
2022-12-18T13:09:37.939Z,101180.91
2022-12-18T13:12:28.004Z,101175.69
2022-12-18T13:15:14.013Z,101131.84
2022-12-18T13:17:40.502Z,101134.50
2022-12-18T13:20:11.260Z,101117.31
2022-12-18T13:22:43.528Z,101117.50
2022-12-18T13:25:31.040Z,101107.34
2022-12-18T13:28:03.690Z,101107.44
2022-12-18T13:30:33.018Z,101093.81
2022-12-18T13:33:14.794Z,101106.81
2022-12-18T13:35:47.033Z,101102.59
2022-12-18T13:38:21.543Z,101090.56
2022-12-18T13:40:51.196Z,101094.84
2022-12-18T13:43:20.702Z,101090.56
2022-12-18T13:46:22.044Z,101107.00
2022-12-18T13:48:56.456Z,101094.19
2022-12-18T13:51:24.104Z,101101.94
2022-12-18T13:53:55.664Z,101094.19
2022-12-18T13:56:25.460Z,101090.75
2022-12-18T13:59:12.847Z,101091.53
2022-12-18T14:01:48.028Z,101098.34
2022-12-18T14:04:19.898Z,101096.56
2022-12-18T14:06:47.659Z,101099.16
2022-12-18T14:09:20.351Z,101091.34
2022-12-18T14:11:49.595Z,101075.81
2022-12-18T14:14:18.051Z,101080.13
2022-12-18T14:16:44.893Z,101081.88
2022-12-18T14:19:17.719Z,101083.66
2022-12-18T14:21:51.076Z,101079.34
2022-12-18T14:24:20.150Z,101090.50
2022-12-18T14:26:47.734Z,101088.66
2022-12-18T14:29:30.948Z,101090.38
2022-12-18T14:32:19.997Z,101093.81
2022-12-18T14:34:54.734Z,101097.28
2022-12-18T14:37:23.182Z,101095.59
2022-12-18T14:39:55.074Z,101096.31
2022-12-18T14:42:21.612Z,101098.72
2022-12-18T14:45:12.934Z,101095.25
2022-12-18T14:47:36.542Z,101098.69
2022-12-18T14:50:03.167Z,101103.09
2022-12-18T14:52:32.536Z,101090.22
2022-12-18T14:54:58.989Z,101094.56
2022-12-18T14:57:27.438Z,101097.16
2022-12-18T14:59:53.962Z,101092.88
2022-12-18T15:02:26.766Z,101087.72
2022-12-18T15:05:12.776Z,101086.03
2022-12-18T15:07:44.755Z,101079.13
2022-12-18T15:10:14.678Z,101077.38
2022-12-18T15:12:45.260Z,101077.38
2022-12-18T15:15:34.007Z,101085.06
2022-12-18T15:18:09.724Z,101076.44
2022-12-18T15:20:54.027Z,101071.25
2022-12-18T15:23:23.705Z,101072.97
2022-12-18T15:25:57.717Z,101080.63
2022-12-18T15:28:26.774Z,101085.81
2022-12-18T15:31:10.652Z,101078.06
2022-12-18T15:33:42.757Z,101089.25
2022-12-18T15:36:16.014Z,101088.38
2022-12-18T15:38:48.840Z,101090.13
2022-12-18T15:41:21.448Z,101098.72
2022-12-18T15:43:52.200Z,101086.69
2022-12-18T15:46:24.062Z,101073.78
2022-12-18T15:49:01.379Z,101074.66
2022-12-18T15:51:36.841Z,101078.09
2022-12-18T15:54:05.952Z,101072.03
2022-12-18T15:56:51.123Z,101078.94
2022-12-18T15:59:19.398Z,101068.53
2022-12-18T16:01:50.707Z,101068.53
2022-12-18T16:04:22.903Z,101068.56
2022-12-18T16:09:36.814Z,101066.06
2022-12-18T16:12:03.780Z,101061.78
2022-12-18T16:14:30.901Z,101056.63
2022-12-18T16:17:06.783Z,101062.72
2022-12-18T16:19:33.177Z,101061.03
2022-12-18T16:21:59.882Z,101059.31
2022-12-18T16:24:32.137Z,101058.53
2022-12-18T16:27:00.617Z,101057.72
2022-12-18T16:29:28.865Z,101056.88
2022-12-18T16:31:59.417Z,101055.19
2022-12-18T16:34:29.544Z,101053.50
2022-12-18T16:37:05.747Z,101051.81
2022-12-18T16:39:36.371Z,101055.31
2022-12-18T16:42:05.700Z,101044.09
2022-12-18T16:44:33.987Z,101047.56
2022-12-18T16:47:02.789Z,101040.72
2022-12-18T16:49:29.646Z,101039.88
2022-12-18T16:51:56.236Z,101039.06
2022-12-18T16:54:22.667Z,101033.91
2022-12-18T16:56:51.365Z,101029.63
2022-12-18T16:59:17.964Z,101031.41
2022-12-18T17:01:44.691Z,101033.13
2022-12-18T17:04:11.225Z,101038.31
2022-12-18T17:06:43.305Z,101040.06
2022-12-18T17:09:15.781Z,101039.22
2022-12-18T17:11:42.273Z,101032.38
2022-12-18T17:14:12.247Z,101027.19
2022-12-18T17:16:38.706Z,101030.69
2022-12-18T17:19:08.793Z,101032.44
2022-12-18T17:21:38.738Z,101030.75
2022-12-18T17:24:06.912Z,101038.59
2022-12-18T17:26:33.478Z,101028.31
2022-12-18T17:29:00.010Z,101031.75
2022-12-18T17:31:28.913Z,101029.16
2022-12-18T17:33:55.546Z,101026.56
2022-12-18T17:36:22.801Z,101024.84
2022-12-18T17:38:53.811Z,101017.06
2022-12-18T17:41:21.114Z,101010.19
2022-12-18T17:43:51.995Z,100998.09
2022-12-18T17:46:18.572Z,101004.13
2022-12-18T17:48:45.048Z,101000.69
2022-12-18T17:51:11.932Z,101002.44
2022-12-18T17:53:39.552Z,101009.31
2022-12-18T17:56:08.031Z,101013.63
2022-12-18T17:58:36.735Z,101021.38
2022-12-18T18:01:04.782Z,101017.94
2022-12-18T18:03:33.002Z,101017.94
2022-12-18T18:06:00.783Z,101024.88
2022-12-18T18:08:28.343Z,101019.69
2022-12-18T18:10:55.439Z,101007.63
2022-12-18T18:13:46.818Z,101006.78
2022-12-18T18:16:13.835Z,101007.69
2022-12-18T18:18:40.433Z,100999.06
2022-12-18T18:21:08.485Z,101000.81
2022-12-18T18:23:35.730Z,101007.75
2022-12-18T18:26:06.505Z,101002.56
2022-12-18T18:28:33.835Z,100999.97
2022-12-18T18:31:08.185Z,100995.66
2022-12-18T18:33:34.710Z,101007.75
2022-12-18T18:36:01.197Z,101006.03
2022-12-18T18:38:29.140Z,101013.81
2022-12-18T18:41:03.216Z,101009.47
2022-12-18T18:43:30.044Z,101014.66
2022-12-18T18:45:57.499Z,101025.00
2022-12-18T18:48:24.432Z,101022.41
2022-12-18T18:50:59.168Z,101014.66
2022-12-18T18:53:25.879Z,101011.22
2022-12-18T18:56:26.135Z,101009.50
2022-12-18T18:58:38.983Z,101000.03
2022-12-18T19:01:08.327Z,100993.16
2022-12-18T19:03:35.856Z,100974.16
2022-12-18T19:06:02.371Z,100969.88
2022-12-18T19:08:31.438Z,100968.13
2022-12-18T19:10:59.660Z,100960.38
2022-12-18T19:13:29.328Z,100962.13
2022-12-18T19:16:16.070Z,100962.13
2022-12-18T19:18:43.163Z,100964.69
2022-12-18T19:21:10.847Z,100960.38
2022-12-18T19:23:37.454Z,100960.38
2022-12-18T19:26:26.981Z,100957.78
2022-12-18T19:28:52.281Z,100945.75
2022-12-18T19:31:24.351Z,100943.16
2022-12-18T19:33:51.942Z,100924.19
2022-12-18T19:36:29.180Z,100930.22
2022-12-18T19:38:57.651Z,100935.44
2022-12-18T19:41:25.621Z,100939.72
2022-12-18T19:43:54.542Z,100947.47
2022-12-18T19:46:23.867Z,100937.13
2022-12-18T19:48:50.464Z,100946.63
2022-12-18T19:51:20.109Z,100946.63
2022-12-18T19:53:47.357Z,100943.16
2022-12-18T19:56:16.883Z,100937.13
2022-12-18T19:58:44.810Z,100930.22
2022-12-18T20:01:16.513Z,100920.72
2022-12-18T20:03:44.598Z,100919.88
2022-12-18T20:06:28.262Z,100928.47
2022-12-18T20:09:00.379Z,100919.81
2022-12-18T20:11:30.456Z,100920.72
2022-12-18T20:13:57.618Z,100922.41
2022-12-18T20:16:27.156Z,100932.75
2022-12-18T20:18:57.007Z,100927.56
2022-12-18T20:21:25.146Z,100919.81
2022-12-18T20:23:51.642Z,100928.44
2022-12-18T20:26:18.359Z,100919.78
2022-12-18T20:28:44.996Z,100928.38
2022-12-18T20:31:13.491Z,100924.06
2022-12-18T20:33:41.989Z,100924.06
2022-12-18T20:36:12.986Z,100940.44
2022-12-18T20:38:41.062Z,100938.69
2022-12-18T20:41:10.799Z,100943.00
2022-12-18T20:43:38.718Z,100952.56
2022-12-18T20:46:07.606Z,100952.56
2022-12-18T20:48:34.118Z,100948.25
2022-12-18T20:51:03.933Z,100943.97
2022-12-18T20:53:30.841Z,100934.50
2022-12-18T20:55:57.360Z,100933.66
2022-12-18T20:58:24.294Z,100925.88
2022-12-18T21:01:04.916Z,100915.56
2022-12-18T21:03:31.478Z,100912.13
2022-12-18T21:05:57.977Z,100892.31
2022-12-18T21:08:24.947Z,100894.91
2022-12-18T21:10:51.475Z,100897.53
2022-12-18T21:13:20.955Z,100913.91
2022-12-18T21:15:47.399Z,100907.03
2022-12-18T21:18:14.058Z,100916.53
2022-12-18T21:20:40.865Z,100928.63
2022-12-18T21:23:16.035Z,100937.25
2022-12-18T21:25:44.349Z,100953.63
2022-12-18T21:28:14.054Z,100941.53
2022-12-18T21:30:40.840Z,100944.13
2022-12-18T21:33:07.291Z,100937.22
2022-12-18T21:35:33.697Z,100929.44
2022-12-18T21:38:00.126Z,100925.16
2022-12-18T21:40:29.123Z,100918.25
2022-12-18T21:43:17.327Z,100921.72
2022-12-18T21:45:44.348Z,100908.78
2022-12-18T21:48:12.124Z,100915.69
2022-12-18T21:50:38.581Z,100917.41
2022-12-18T21:53:04.982Z,100919.16
2022-12-18T21:55:31.432Z,100919.16
2022-12-18T21:57:57.951Z,100933.81
2022-12-18T22:00:24.399Z,100938.09
2022-12-18T22:03:17.573Z,100934.66
2022-12-18T22:05:37.306Z,100927.75
2022-12-18T22:08:03.918Z,100945.91
2022-12-18T22:10:30.498Z,100946.72
2022-12-18T22:12:57.018Z,100947.56
2022-12-18T22:15:23.488Z,100944.13
2022-12-18T22:17:51.114Z,100944.13
2022-12-18T22:20:20.012Z,100936.34
2022-12-18T22:22:47.915Z,100933.81
2022-12-18T22:25:14.520Z,100942.44
2022-12-18T22:27:40.994Z,100939.88
2022-12-18T22:30:08.917Z,100932.97
2022-12-18T22:32:36.031Z,100933.00
2022-12-18T22:35:10.368Z,100926.06
2022-12-18T22:37:40.629Z,100924.38
2022-12-18T22:40:07.653Z,100931.28
2022-12-18T22:42:35.159Z,100930.44
2022-12-18T22:45:01.579Z,100925.25
2022-12-18T22:47:29.981Z,100924.41
2022-12-18T22:49:57.705Z,100930.44
2022-12-18T22:52:25.469Z,100940.78
2022-12-18T22:54:54.198Z,100932.16
2022-12-18T22:57:22.001Z,100936.50
2022-12-18T22:59:49.730Z,100931.34
2022-12-18T23:02:20.412Z,100910.63
2022-12-18T23:04:47.613Z,100909.75
2022-12-18T23:07:14.322Z,100902.84
2022-12-18T23:09:40.736Z,100902.00
2022-12-18T23:12:07.644Z,100899.41
2022-12-18T23:14:34.083Z,100892.50
2022-12-18T23:17:00.504Z,100895.97
2022-12-18T23:19:26.937Z,100893.38
2022-12-18T23:21:54.833Z,100899.44
2022-12-18T23:24:23.533Z,100904.59
2022-12-18T23:26:49.930Z,100898.56
2022-12-18T23:29:16.417Z,100896.81
2022-12-18T23:31:42.929Z,100888.19
2022-12-18T23:34:11.841Z,100889.06
2022-12-18T23:36:46.170Z,100889.09
2022-12-18T23:39:18.805Z,100876.13
2022-12-18T23:42:00.187Z,100873.53
2022-12-18T23:44:26.936Z,100871.81
2022-12-18T23:46:53.424Z,100868.38
2022-12-18T23:49:19.945Z,100869.25
2022-12-18T23:51:46.342Z,100857.16
2022-12-18T23:54:12.747Z,100855.41
2022-12-18T23:56:39.198Z,100858.03
2022-12-18T23:59:05.596Z,100863.19
